Flight Track Log - Related Links

Times and Time Zones

All times are in EDT time to prevent confusion due to time zone crossing. See the ASQ3812 flight status page for this flight to view local times or setup timezone preferences in your user account.

Time Position Orientation Groundspeed Altitude Reporting Facility
EDT Latitude Longitude Course Direction KTS MPH feet Rate Location/Type
Thu 08:08:24 AM 44.0603 -103.0700 43° Northeast 164 189 4,000  Level Denver Center
Thu 08:09:31 AM 44.0925 -103.0283 24° Northeast 211 243 5,900 1,689 Climbing Denver Center
Thu 08:10:07 AM 44.0650 -102.9944 138° Southeast 161 185 6,900 1,800 Climbing Denver Center
Thu 08:10:31 AM 44.0417 -102.9867 167° South 247 284 7,700 1,967 Climbing Denver Center
Thu 08:11:08 AM 44.0050 -102.9592 152° Southeast 238 274 8,900 2,262 Climbing Denver Center
Thu 08:11:32 AM 43.9864 -102.9289 131° Southeast 241 277 10,000 2,066 Climbing Denver Center
Thu 08:12:09 AM 43.9847 -102.8914 94° East 229 264 11,000 1,574 Climbing Denver Center
Thu 08:12:33 AM 43.9822 -102.8444 94° East 234 269 11,600 1,200 Climbing Denver Center
Thu 08:13:09 AM 43.9856 -102.7903 85° East 244 281 12,200 1,113 Climbing Denver Center
Thu 08:14:10 AM 43.9872 -102.6750 89° East 276 318 13,400 1,525 Climbing Denver Center
Thu 08:15:11 AM 43.9903 -102.5542 88° East 307 353 15,300 1,672 Climbing Denver Center
Thu 08:16:12 AM 43.9950 -102.4333 87° East 311 358 16,800 1,289 Climbing Denver Center
Thu 08:17:12 AM 43.9981 -102.3050 88° East 326 375 17,900 1,140 Climbing Denver Center
Thu 08:18:13 AM 44.0017 -102.1714 88° East 339 390 19,100 1,180 Climbing Denver Center
Thu 08:19:14 AM 44.0047 -102.0308 88° East 356 410 20,300 1,180 Climbing Denver Center
Thu 08:20:15 AM 44.0083 -101.8853 88° East 371 427 21,500 1,279 Climbing Denver Center
Thu 08:21:16 AM 44.0122 -101.7064 88° East 383 441 22,900 1,279 Climbing Denver Center
Thu 08:22:17 AM 44.0194 -101.5608 86° East 383 441 24,100 1,230 Climbing Denver Center
Thu 08:23:18 AM 44.0239 -101.4092 88° East 391 450 25,400 1,279 Climbing Denver Center
Thu 08:24:19 AM 44.0375 -101.2586 83° East 393 452 26,700 1,279 Climbing Denver Center
Thu 08:25:20 AM 44.0586 -101.1172 78° East 383 441 28,000 1,230 Climbing Denver Center
Thu 08:26:21 AM 44.0725 -100.9700 82° East 381 438 29,200 1,033 Climbing Denver Center
Thu 08:27:22 AM 44.0889 -100.8242 81° East 383 441 30,100 926 Climbing Denver Center
Thu 08:28:50 AM 44.1114 -100.6178 81° East 386 444 31,500 1,040 Climbing Minneapolis Center
Thu 08:29:52 AM 44.1022 -100.4267 94° East 412 474 32,700 1,065 Climbing Minneapolis Center
Thu 08:30:54 AM 44.0919 -100.2694 95° East 414 476 33,700 919 Climbing Minneapolis Center
Thu 08:31:56 AM 44.0811 -100.1097 95° East 414 476 34,600 629 Climbing Minneapolis Center
Thu 08:32:58 AM 44.0703 -99.9497 95° East 415 478 35,000 194 Climbing Minneapolis Center
Thu 08:34:00 AM 44.0589 -99.7817 95° East 429 494 35,000 293 Level Minneapolis Center
Thu 08:35:01 AM 44.0436 -99.5694 96° East 454 522 35,600 927 Climbing Minneapolis Center
Thu 08:36:03 AM 44.0303 -99.3989 96° East 454 522 36,900 677 Climbing Minneapolis Center
Thu 08:37:05 AM 44.0178 -99.2317 96° East 443 510 37,000 48 Climbing Minneapolis Center
Thu 08:38:07 AM 44.0044 -99.0586 96° East 445 512 37,000  Level Minneapolis Center
Thu 08:39:09 AM 43.9903 -98.8808 96° East 459 528 37,000  Level Minneapolis Center
Thu 08:40:11 AM 43.9769 -98.7008 96° East 467 537 37,000  Level Minneapolis Center
Thu 08:41:13 AM 43.9619 -98.5083 96° East 467 537 37,000  Level Minneapolis Center
Thu 08:42:15 AM 43.9475 -98.3297 96° East 468 539 37,000  Level Minneapolis Center
Thu 08:43:17 AM 43.9286 -98.1167 97° East 466 536 37,000  Level Minneapolis Center
Thu 08:44:19 AM 43.9136 -97.9394 97° East 466 536 37,000  Level Minneapolis Center
Thu 08:45:21 AM 43.8975 -97.7614 97° East 466 536 37,000  Level Minneapolis Center
Thu 08:46:23 AM 43.8819 -97.5828 97° East 467 537 37,000  Level Minneapolis Center
Thu 08:47:25 AM 43.8661 -97.4039 97° East 467 537 37,000  Level Minneapolis Center
Thu 08:48:26 AM 43.8483 -97.2258 98° East 468 539 37,000  Level Minneapolis Center
Thu 08:49:28 AM 43.8286 -97.0122 97° East 468 539 37,000  Level Minneapolis Center
Thu 08:50:30 AM 43.8117 -96.8353 97° East 468 539 37,000  Level Minneapolis Center
Thu 08:51:32 AM 43.7936 -96.6589 98° East 468 539 37,000  Level Minneapolis Center
Thu 08:52:34 AM 43.7764 -96.4817 98° East 468 539 37,000  Level Minneapolis Center
Thu 08:53:36 AM 43.7586 -96.3047 98° East 468 539 37,000  Level Minneapolis Center
Thu 08:54:38 AM 43.7372 -96.0939 98° East 468 539 37,000  Level Minneapolis Center
Thu 08:55:40 AM 43.7186 -95.9175 98° East 469 540 37,000  Level Minneapolis Center
Thu 08:56:42 AM 43.7003 -95.7450 98° East 463 533 37,000  Level Minneapolis Center
Thu 08:57:44 AM 43.6819 -95.5750 98° East 456 525 37,000  Level Minneapolis Center
Thu 08:58:46 AM 43.6639 -95.4078 98° East 449 517 37,000  Level Minneapolis Center
Thu 08:59:48 AM 43.6453 -95.2411 99° East 445 512 37,000  Level Minneapolis Center
Thu 09:00:50 AM 43.6222 -95.0428 99° East 441 507 37,000  Level Minneapolis Center
Thu 09:01:52 AM 43.6031 -94.8750 99° East 442 509 37,000  Level Minneapolis Center
Thu 09:02:53 AM 43.5844 -94.7019 98° East 454 522 37,000  Level Minneapolis Center
Thu 09:03:55 AM 43.5633 -94.5275 99° East 459 528 37,000  Level Minneapolis Center
Thu 09:04:57 AM 43.5417 -94.3497 99° East 467 537 37,000  Level Minneapolis Center
Thu 09:05:59 AM 43.5194 -94.1633 99° East 469 540 37,000  Level Minneapolis Center
Thu 09:07:01 AM 43.4981 -93.9908 100° East 468 539 37,000  Level Minneapolis Center
Thu 09:08:03 AM 43.4717 -93.7792 100° East 468 539 37,000  Level Minneapolis Center
Thu 09:09:05 AM 43.4503 -93.6078 100° East 466 536 37,000  Level Minneapolis Center
Thu 09:10:07 AM 43.4275 -93.4328 100° East 466 536 37,000  Level Minneapolis Center
Thu 09:11:09 AM 43.4064 -93.2589 99° East 466 536 37,000  Level Minneapolis Center
Thu 09:12:11 AM 43.3836 -93.0858 100° East 466 536 37,000  Level Minneapolis Center
Thu 09:13:13 AM 43.3547 -92.8775 101° East 466 536 37,000  Level Minneapolis Center
Thu 09:14:15 AM 43.3314 -92.7044 100° East 466 536 37,000  Level Minneapolis Center
Thu 09:14:56 AM 43.3133 -92.6031 104° East 464 534 37,000  Level Chicago Center
Thu 09:15:58 AM 43.2919 -92.4281 99° East 465 535 37,000  Level Chicago Center
Thu 09:17:00 AM 43.2631 -92.2200 101° East 465 535 37,000 -484 Level Chicago Center
Thu 09:18:02 AM 43.2383 -92.0475 101° East 465 535 36,000 -1,645 Descending Chicago Center
Thu 09:19:04 AM 43.2147 -91.8756 101° East 464 534 33,600 -2,323 Descending Chicago Center
Thu 09:20:06 AM 43.1914 -91.7033 100° East 463 533 31,200 -1,258 Descending Chicago Center
Thu 09:21:08 AM 43.1428 -91.5367 112° Southeast 466 536 31,000 -97 Descending Chicago Center
Thu 09:22:10 AM 43.0864 -91.3731 115° Southeast 472 543 31,000  Level Chicago Center
Thu 09:23:12 AM 43.0181 -91.1769 115° Southeast 473 544 31,000  Level Chicago Center
Thu 09:24:15 AM 42.9600 -91.0142 116° Southeast 476 548 31,000  Level Chicago Center
Thu 09:25:17 AM 42.9053 -90.8522 115° Southeast 473 544 31,000  Level Chicago Center
Thu 09:26:19 AM 42.8472 -90.6906 116° Southeast 475 547 31,000  Level Chicago Center
Thu 09:27:21 AM 42.7906 -90.5292 116° Southeast 475 547 31,000  Level Chicago Center
Thu 09:28:23 AM 42.7336 -90.3706 116° Southeast 473 544 31,000 -339 Level Chicago Center
Thu 09:29:25 AM 42.6653 -90.1808 116° Southeast 472 543 30,300 -1,500 Descending Chicago Center
Thu 09:30:27 AM 42.6106 -90.0256 116° Southeast 464 534 27,900 -2,419 Descending Chicago Center
Thu 09:31:29 AM 42.5806 -89.8478 103° East 446 513 25,300 -1,694 Descending Chicago Center
Thu 09:32:31 AM 42.5600 -89.6822 100° East 445 512 24,400 -912 Descending Chicago Center
Thu 09:33:34 AM 42.5378 -89.5125 100° East 458 527 23,400 -1,632 Descending Chicago Center
Thu 09:34:36 AM 42.5158 -89.3500 100° East 444 511 21,000 -2,274 Descending Chicago Center
Thu 09:35:38 AM 42.4944 -89.1922 100° East 434 499 18,700 -2,371 Descending Chicago Center
Thu 09:36:40 AM 42.4689 -89.0103 101° East 414 476 16,100 -2,274 Descending Chicago Center
Thu 09:37:42 AM 42.4500 -88.8647 100° East 401 461 14,000 -1,984 Descending Chicago Center
Thu 09:38:44 AM 42.4294 -88.7242 101° East 391 450 12,000 -1,452 Descending Chicago Center
Thu 09:39:46 AM 42.4014 -88.5894 106° East 383 441 11,000 -484 Descending Chicago Center
Thu 09:40:48 AM 42.3619 -88.4569 112° Southeast 380 437 11,000  Level Chicago Center
Thu 09:41:51 AM 42.2944 -88.3131 122° Southeast 379 436 11,000 -96 Level Chicago Center
Thu 09:42:53 AM 42.2317 -88.2050 128° Southeast 366 421 10,800 -726 Descending Chicago Center
Thu 09:43:55 AM 42.1667 -88.1133 134° Southeast 319 367 9,500 -1,355 Descending Chicago Center
Thu 09:44:57 AM 42.1042 -88.0392 139° Southeast 303 349 8,000 -1,210 Descending Chicago Center
Thu 09:45:59 AM 42.0919 -87.9328 99° East 289 333 7,000 -677 Descending Chicago Center
Thu 09:47:01 AM 42.0914 -87.8264 90° East 267 307 6,600 -726 Descending Chicago Center
Thu 09:48:03 AM 42.0847 -87.7356 96° East 257 296 5,500 -1,355 Descending Chicago Center
Thu 09:49:05 AM 42.0156 -87.7192 170° South 243 280 3,800 -1,258 Descending Chicago Center
Thu 09:50:07 AM 42.0028 -87.7828 255° West 177 204 2,900 -1,008 Descending Chicago Center
Thu 09:51:10 AM 42.0022 -87.8383 269° West 139 160 1,700 -960 Descending Chicago Center
Thu 09:52:12 AM 42.0022 -87.8853 270° West 129 148 900 -774 Descending Chicago Center
Thu 09:54:00 AM 41.9793 -87.9074 251° West  Level Estimated

Login

Don't have an account? Register now (free) for customized features, flight alerts, and more!